createdAt,value
2023-09-21T00:00:27.333Z,1.30
2023-09-21T00:01:27.659Z,1.00
2023-09-21T00:02:27.932Z,1.10
2023-09-21T00:03:28.436Z,1.20
2023-09-21T00:04:28.603Z,1.30
2023-09-21T00:05:28.788Z,1.30
2023-09-21T00:06:29.056Z,1.10
2023-09-21T00:07:29.326Z,1.10
2023-09-21T00:08:29.584Z,1.40
2023-09-21T00:09:29.855Z,1.30
2023-09-21T00:10:30.149Z,1.00
2023-09-21T00:11:30.421Z,1.10
2023-09-21T00:12:30.649Z,1.30
2023-09-21T00:13:30.952Z,1.20
2023-09-21T00:14:31.208Z,1.30
2023-09-21T00:15:31.487Z,1.00
2023-09-21T00:16:31.882Z,1.30
2023-09-21T00:17:32.016Z,1.30
2023-09-21T00:18:32.464Z,1.20
2023-09-21T00:19:32.519Z,1.10
2023-09-21T00:20:32.903Z,1.60
2023-09-21T00:21:33.149Z,1.20
2023-09-21T00:22:33.361Z,1.20
2023-09-21T00:23:33.720Z,1.00
2023-09-21T00:24:33.992Z,1.20
2023-09-21T00:25:34.198Z,1.00
2023-09-21T00:26:34.635Z,0.80
2023-09-21T00:27:34.902Z,1.30
2023-09-21T00:28:35.124Z,1.10
2023-09-21T00:29:35.393Z,0.90
2023-09-21T00:30:35.713Z,1.50
2023-09-21T00:31:36.034Z,1.00
2023-09-21T00:32:36.341Z,1.20
2023-09-21T00:33:36.709Z,1.20
2023-09-21T00:34:36.870Z,1.30
2023-09-21T00:35:37.228Z,0.90
2023-09-21T00:36:37.459Z,1.30
2023-09-21T00:37:37.695Z,1.00
2023-09-21T00:38:37.975Z,1.00
2023-09-21T00:39:38.227Z,1.10
2023-09-21T00:40:38.441Z,0.90
2023-09-21T00:41:38.758Z,1.10
2023-09-21T00:42:38.976Z,1.10
2023-09-21T00:43:39.262Z,1.10
2023-09-21T00:44:39.558Z,1.00
2023-09-21T00:45:39.921Z,1.10
2023-09-21T00:46:40.141Z,0.80
2023-09-21T00:47:40.438Z,1.10
2023-09-21T00:48:41.346Z,1.00
2023-09-21T00:49:40.997Z,1.00
2023-09-21T00:50:41.299Z,0.80
2023-09-21T00:51:41.612Z,1.00
2023-09-21T00:52:41.847Z,1.10
2023-09-21T00:53:42.205Z,1.00
2023-09-21T00:54:42.425Z,1.10
2023-09-21T00:55:42.716Z,1.30
2023-09-21T00:56:42.939Z,1.40
2023-09-21T00:57:43.302Z,1.20
2023-09-21T00:58:44.024Z,1.10
2023-09-21T00:59:44.204Z,1.10
2023-09-21T01:00:44.507Z,0.90
2023-09-21T01:01:44.435Z,0.90
2023-09-21T01:02:44.880Z,0.90
2023-09-21T01:03:45.212Z,0.90
2023-09-21T01:04:45.322Z,1.00
2023-09-21T01:05:45.648Z,0.90
2023-09-21T01:06:45.784Z,1.40
2023-09-21T01:07:46.155Z,0.90
2023-09-21T01:08:46.746Z,0.90
2023-09-21T01:09:46.615Z,1.00
2023-09-21T01:10:46.844Z,1.30
2023-09-21T01:11:47.215Z,1.20
2023-09-21T01:12:47.415Z,1.10
2023-09-21T01:13:47.761Z,0.80
2023-09-21T01:14:48.088Z,1.00
2023-09-21T01:15:48.347Z,0.80
2023-09-21T01:16:48.550Z,1.30
2023-09-21T01:17:49.065Z,0.90
2023-09-21T01:18:49.647Z,1.10
2023-09-21T01:19:49.437Z,0.80
2023-09-21T01:20:49.697Z,1.00
2023-09-21T01:21:49.883Z,1.10
2023-09-21T01:22:50.246Z,0.90
2023-09-21T01:23:51.058Z,1.30
2023-09-21T01:24:50.791Z,1.00
2023-09-21T01:25:51.015Z,1.60
2023-09-21T01:26:51.352Z,0.90
2023-09-21T01:27:51.711Z,1.20
2023-09-21T01:28:51.948Z,1.00
2023-09-21T01:29:52.169Z,1.20
2023-09-21T01:30:52.358Z,0.90
2023-09-21T01:31:52.734Z,1.30
2023-09-21T01:32:53.149Z,1.00
2023-09-21T01:33:53.412Z,0.80
2023-09-21T01:34:53.616Z,1.40
2023-09-21T01:35:53.997Z,1.10
2023-09-21T01:36:54.198Z,1.10
2023-09-21T01:37:54.523Z,1.20
2023-09-21T01:38:54.866Z,1.60
2023-09-21T01:39:55.176Z,1.10
2023-09-21T01:40:55.520Z,1.40
2023-09-21T01:41:55.972Z,1.20
2023-09-21T01:42:56.182Z,1.30
2023-09-21T01:43:56.518Z,1.30
2023-09-21T01:44:56.870Z,1.10
2023-09-21T01:45:57.230Z,1.40
2023-09-21T01:46:57.445Z,1.40
2023-09-21T01:47:57.772Z,1.40
2023-09-21T01:48:57.923Z,1.70
2023-09-21T01:49:58.251Z,1.30
2023-09-21T01:50:58.675Z,1.40
2023-09-21T01:51:58.817Z,1.20
2023-09-21T01:52:59.103Z,1.30
2023-09-21T01:53:59.457Z,1.40
2023-09-21T01:54:59.689Z,1.10
2023-09-21T01:55:59.941Z,1.10
2023-09-21T01:57:00.209Z,1.30
2023-09-21T01:58:00.389Z,1.00
2023-09-21T01:59:00.761Z,1.10
2023-09-21T02:00:01.046Z,1.20
2023-09-21T02:01:01.302Z,1.30
2023-09-21T02:02:01.593Z,1.60
2023-09-21T02:03:01.897Z,1.00
2023-09-21T02:04:02.155Z,1.30
2023-09-21T02:05:02.389Z,1.30
2023-09-21T02:06:02.798Z,1.40
2023-09-21T02:07:02.977Z,1.40
2023-09-21T02:08:03.340Z,1.40
2023-09-21T02:09:03.627Z,1.50
2023-09-21T02:10:03.863Z,1.60
2023-09-21T02:11:04.099Z,1.50
2023-09-21T02:12:04.486Z,1.60
2023-09-21T02:13:04.761Z,1.50
2023-09-21T02:14:05.113Z,1.50
2023-09-21T02:15:05.359Z,1.70
2023-09-21T02:16:05.732Z,1.50
2023-09-21T02:17:05.984Z,1.30
2023-09-21T02:18:06.343Z,1.30
2023-09-21T02:19:06.553Z,1.50
2023-09-21T02:20:07.040Z,1.60
2023-09-21T02:21:07.302Z,1.70
2023-09-21T02:22:07.585Z,1.60
2023-09-21T02:23:07.937Z,1.50
2023-09-21T02:24:08.232Z,1.40
2023-09-21T02:25:08.466Z,1.70
2023-09-21T02:26:08.709Z,1.50
2023-09-21T02:27:09.116Z,1.40
2023-09-21T02:28:09.356Z,1.50
2023-09-21T02:29:09.747Z,1.40
2023-09-21T02:30:09.981Z,1.60
2023-09-21T02:31:10.446Z,1.40
2023-09-21T02:32:10.641Z,1.50
2023-09-21T02:33:11.212Z,1.60
2023-09-21T02:34:11.353Z,1.80
2023-09-21T02:35:11.579Z,1.50
2023-09-21T02:36:11.971Z,1.30
2023-09-21T02:37:12.274Z,1.60
2023-09-21T02:38:12.541Z,1.40
2023-09-21T02:39:12.770Z,1.40
2023-09-21T02:40:12.966Z,1.40
2023-09-21T02:41:13.281Z,1.50
2023-09-21T02:42:13.565Z,1.30
2023-09-21T02:43:13.919Z,1.60
2023-09-21T02:44:14.133Z,1.60
2023-09-21T02:45:14.594Z,1.50
2023-09-21T02:46:14.906Z,1.20
2023-09-21T02:47:15.114Z,1.50
2023-09-21T02:48:15.576Z,1.40
2023-09-21T02:49:15.780Z,1.60
2023-09-21T02:50:15.961Z,1.20
2023-09-21T02:51:16.348Z,1.10
2023-09-21T02:52:16.598Z,1.30
2023-09-21T02:53:16.881Z,1.50
2023-09-21T02:54:17.088Z,1.30
2023-09-21T02:55:17.403Z,1.30
2023-09-21T02:56:17.784Z,1.50
2023-09-21T02:57:18.072Z,1.30
2023-09-21T02:58:18.243Z,1.10
2023-09-21T02:59:18.552Z,1.40
2023-09-21T03:00:18.949Z,1.50
2023-09-21T03:01:19.180Z,1.50
2023-09-21T03:02:19.521Z,1.40
2023-09-21T03:03:19.828Z,1.40
2023-09-21T03:04:20.021Z,1.60
2023-09-21T03:05:20.337Z,1.50
2023-09-21T03:06:20.751Z,1.40
2023-09-21T03:07:20.975Z,1.30
2023-09-21T03:08:21.193Z,1.70
2023-09-21T03:09:21.590Z,1.60
2023-09-21T03:10:21.846Z,1.40
2023-09-21T03:11:22.117Z,1.60
2023-09-21T03:12:22.379Z,1.70
2023-09-21T03:13:22.702Z,1.50
2023-09-21T03:14:22.892Z,1.50
2023-09-21T03:15:23.156Z,1.40
2023-09-21T03:16:23.481Z,1.40
2023-09-21T03:17:23.868Z,1.60
2023-09-21T03:18:24.033Z,1.40
2023-09-21T03:19:24.225Z,1.30
2023-09-21T03:20:24.586Z,1.30
2023-09-21T03:21:25.360Z,1.70
2023-09-21T03:22:25.305Z,1.30
2023-09-21T03:23:25.661Z,1.40
2023-09-21T03:24:25.858Z,1.40
2023-09-21T03:25:26.238Z,1.60
2023-09-21T03:26:26.424Z,1.70
2023-09-21T03:27:26.819Z,1.30
2023-09-21T03:28:27.389Z,1.40
2023-09-21T03:29:27.294Z,1.70
2023-09-21T03:30:27.584Z,1.50
2023-09-21T03:31:27.880Z,1.80
2023-09-21T03:32:28.190Z,1.80
2023-09-21T03:33:28.601Z,1.60
2023-09-21T03:34:28.755Z,1.70
2023-09-21T03:35:29.105Z,1.80
2023-09-21T03:36:29.280Z,1.40
2023-09-21T03:37:29.631Z,1.60
2023-09-21T03:38:29.895Z,1.60
2023-09-21T03:39:30.171Z,1.40
2023-09-21T03:40:30.410Z,1.60
2023-09-21T03:41:30.662Z,1.60
2023-09-21T03:42:31.118Z,1.60
2023-09-21T03:43:31.368Z,1.50
2023-09-21T03:44:31.659Z,1.70
2023-09-21T03:45:31.960Z,1.40
2023-09-21T03:46:32.306Z,1.40
2023-09-21T03:47:32.535Z,1.90
2023-09-21T03:48:32.892Z,1.40
2023-09-21T03:49:33.133Z,1.40
2023-09-21T03:50:33.396Z,1.60
2023-09-21T03:51:33.705Z,1.90
2023-09-21T03:52:33.895Z,1.30
2023-09-21T03:53:34.253Z,1.50
2023-09-21T03:54:34.463Z,1.90
2023-09-21T03:55:34.814Z,1.60
2023-09-21T03:56:35.199Z,1.40
2023-09-21T03:57:35.416Z,1.30
2023-09-21T03:58:35.799Z,1.40
2023-09-21T03:59:35.997Z,1.60
2023-09-21T04:00:36.372Z,1.50
2023-09-21T04:01:36.625Z,1.80
2023-09-21T04:02:36.879Z,2.00
2023-09-21T04:03:37.357Z,1.80
2023-09-21T04:04:37.584Z,1.90
2023-09-21T04:05:37.887Z,1.60
2023-09-21T04:06:38.071Z,1.60
2023-09-21T04:07:38.815Z,1.50
2023-09-21T04:08:39.086Z,1.60
2023-09-21T04:09:38.914Z,1.80
2023-09-21T04:10:39.341Z,1.90
2023-09-21T04:11:39.518Z,1.60
2023-09-21T04:12:39.923Z,1.40
2023-09-21T04:13:40.074Z,1.40
2023-09-21T04:14:40.322Z,1.70
2023-09-21T04:15:40.816Z,1.40
2023-09-21T04:16:40.970Z,1.80
2023-09-21T04:17:41.284Z,1.80
2023-09-21T04:18:41.760Z,1.80
2023-09-21T04:19:41.821Z,1.70
2023-09-21T04:20:42.598Z,1.60
2023-09-21T04:21:42.572Z,1.70
2023-09-21T04:22:42.688Z,1.40
2023-09-21T04:23:43.672Z,1.80
2023-09-21T04:24:43.326Z,1.70
2023-09-21T04:25:43.532Z,2.10
2023-09-21T04:26:43.898Z,1.70
2023-09-21T04:27:44.205Z,2.10
2023-09-21T04:28:44.781Z,1.90
2023-09-21T04:29:44.806Z,1.80
2023-09-21T04:30:45.214Z,1.70
2023-09-21T04:31:45.508Z,2.00
2023-09-21T04:32:45.841Z,1.50
2023-09-21T04:33:46.090Z,2.00
2023-09-21T04:34:46.396Z,1.80
2023-09-21T04:35:46.777Z,1.50
2023-09-21T04:36:46.997Z,1.70
2023-09-21T04:37:47.364Z,1.70
2023-09-21T04:38:47.635Z,1.60
2023-09-21T04:39:47.846Z,1.50
2023-09-21T04:40:48.227Z,1.70
2023-09-21T04:41:48.516Z,1.60
2023-09-21T04:42:48.754Z,1.50
2023-09-21T04:43:48.929Z,1.70
2023-09-21T04:44:49.326Z,1.70
2023-09-21T04:45:49.636Z,1.60
2023-09-21T04:46:49.826Z,1.60
2023-09-21T04:47:50.441Z,2.00
2023-09-21T04:48:50.530Z,2.00
2023-09-21T04:49:50.783Z,2.00
2023-09-21T04:50:51.041Z,1.90
2023-09-21T04:51:51.227Z,1.70
2023-09-21T04:52:51.621Z,1.80
2023-09-21T04:53:51.835Z,1.70
2023-09-21T04:54:52.192Z,1.90
2023-09-21T04:55:52.415Z,1.80
2023-09-21T04:56:52.822Z,1.80
2023-09-21T04:57:53.056Z,2.10
2023-09-21T04:58:53.286Z,1.90
2023-09-21T04:59:53.670Z,1.80
2023-09-21T05:00:53.907Z,1.70
2023-09-21T05:01:54.177Z,1.70
2023-09-21T05:02:54.561Z,1.70
2023-09-21T05:03:54.761Z,1.90
2023-09-21T05:04:55.057Z,2.00
2023-09-21T05:05:55.352Z,2.00
2023-09-21T05:06:55.566Z,1.80
2023-09-21T05:07:56.896Z,1.80
2023-09-21T05:08:56.226Z,1.80
2023-09-21T05:09:56.471Z,1.80
2023-09-21T05:10:56.732Z,1.90
2023-09-21T05:11:57.031Z,1.80
2023-09-21T05:12:57.214Z,1.70
2023-09-21T05:13:57.588Z,1.80
2023-09-21T05:14:57.840Z,1.70
2023-09-21T05:15:58.248Z,1.90
2023-09-21T05:16:58.425Z,2.10
2023-09-21T05:17:58.977Z,2.50
2023-09-21T05:18:59.126Z,2.10
2023-09-21T05:19:59.354Z,2.00
2023-09-21T05:20:59.679Z,1.80
2023-09-21T05:21:59.938Z,1.70
2023-09-21T05:23:00.250Z,2.00
2023-09-21T05:24:00.600Z,2.00
2023-09-21T05:25:00.883Z,1.80
2023-09-21T05:26:01.149Z,2.10
2023-09-21T05:27:01.512Z,2.10
2023-09-21T05:28:01.793Z,3.70
2023-09-21T05:29:02.116Z,3.30
2023-09-21T05:30:07.208Z,3.40
2023-09-21T05:31:02.710Z,3.00
2023-09-21T05:32:02.958Z,2.60
2023-09-21T05:33:03.404Z,2.80
2023-09-21T05:34:03.850Z,3.40
2023-09-21T05:35:03.960Z,2.70
2023-09-21T05:36:04.086Z,2.30
2023-09-21T05:37:06.323Z,2.00
2023-09-21T05:38:04.650Z,2.20
2023-09-21T05:39:04.967Z,1.70
2023-09-21T05:40:05.163Z,3.40
2023-09-21T05:41:05.403Z,4.30
2023-09-21T05:42:05.713Z,5.20
2023-09-21T05:43:05.989Z,5.10
2023-09-21T05:44:06.202Z,3.20
2023-09-21T05:45:06.457Z,2.50
2023-09-21T05:46:06.747Z,2.30
2023-09-21T05:47:07.019Z,1.70
2023-09-21T05:48:07.325Z,1.80
2023-09-21T05:49:07.576Z,1.50
2023-09-21T05:50:07.952Z,1.80
2023-09-21T05:51:08.469Z,1.80
2023-09-21T05:52:08.434Z,1.80
2023-09-21T05:53:08.709Z,1.80
2023-09-21T05:54:08.983Z,1.70
2023-09-21T05:55:09.211Z,1.90
2023-09-21T05:56:09.480Z,1.90
2023-09-21T05:57:09.748Z,1.40
2023-09-21T05:58:09.982Z,1.70
2023-09-21T05:59:10.198Z,1.90
2023-09-21T06:00:10.482Z,1.70
2023-09-21T06:01:10.800Z,1.80
2023-09-21T06:02:11.053Z,1.80
2023-09-21T06:03:11.403Z,1.90
2023-09-21T06:04:11.644Z,1.90
2023-09-21T06:05:11.779Z,1.50
2023-09-21T06:06:12.067Z,2.00
2023-09-21T06:07:12.318Z,1.80
2023-09-21T06:08:12.581Z,1.80
2023-09-21T06:09:12.845Z,1.50
2023-09-21T06:10:13.106Z,2.20
2023-09-21T06:11:13.370Z,2.70
2023-09-21T06:12:13.657Z,2.00
2023-09-21T06:13:13.831Z,2.00
2023-09-21T06:14:14.136Z,1.70
2023-09-21T06:15:14.432Z,2.00
2023-09-21T06:16:14.650Z,1.70
2023-09-21T06:17:15.226Z,1.60
2023-09-21T06:18:15.192Z,2.20
2023-09-21T06:19:17.823Z,1.70
2023-09-21T06:20:15.796Z,1.80
2023-09-21T06:21:16.040Z,1.60
2023-09-21T06:22:16.377Z,1.90
2023-09-21T06:23:16.740Z,2.10
2023-09-21T06:24:17.034Z,1.80
2023-09-21T06:25:17.242Z,1.80
2023-09-21T06:26:17.481Z,1.70
2023-09-21T06:27:17.755Z,1.70
2023-09-21T06:28:18.041Z,1.60
2023-09-21T06:29:18.309Z,1.50
2023-09-21T06:30:18.592Z,1.60
2023-09-21T06:31:18.833Z,2.00
2023-09-21T06:32:19.131Z,1.70
2023-09-21T06:33:19.409Z,2.00
2023-09-21T06:34:19.674Z,1.70
2023-09-21T06:35:19.907Z,1.50
2023-09-21T06:36:20.188Z,1.30
2023-09-21T06:37:20.365Z,1.40
2023-09-21T06:38:20.739Z,1.50
2023-09-21T06:39:21.007Z,1.90
2023-09-21T06:40:21.213Z,1.40
2023-09-21T06:41:21.429Z,1.50
2023-09-21T06:42:21.724Z,1.80
2023-09-21T06:43:22.042Z,1.60
2023-09-21T06:44:22.249Z,1.70
2023-09-21T06:45:22.516Z,1.50
2023-09-21T06:46:22.749Z,1.60
2023-09-21T06:47:22.997Z,1.70
2023-09-21T06:48:23.370Z,2.00
2023-09-21T06:49:23.482Z,1.80
2023-09-21T06:50:23.783Z,1.70
2023-09-21T06:51:24.048Z,1.60
2023-09-21T06:52:24.286Z,1.60
2023-09-21T06:53:24.567Z,1.70
2023-09-21T06:54:24.850Z,1.50
2023-09-21T06:55:25.070Z,1.80
2023-09-21T06:56:25.293Z,1.80
2023-09-21T06:57:25.766Z,1.70
2023-09-21T06:58:25.900Z,1.70
2023-09-21T06:59:26.130Z,1.60
2023-09-21T07:00:26.531Z,1.30
2023-09-21T07:01:26.713Z,1.60
2023-09-21T07:02:27.058Z,1.40
2023-09-21T07:03:27.368Z,1.30
2023-09-21T07:04:27.585Z,1.60
2023-09-21T07:05:27.745Z,1.60
2023-09-21T07:06:28.160Z,1.80
2023-09-21T07:07:28.361Z,1.50
2023-09-21T07:08:28.620Z,1.50
2023-09-21T07:09:28.906Z,1.50
2023-09-21T07:10:29.118Z,1.60
2023-09-21T07:11:29.533Z,1.30
2023-09-21T07:12:29.819Z,1.40
2023-09-21T07:13:30.032Z,1.40
2023-09-21T07:14:30.281Z,1.30
2023-09-21T07:15:30.658Z,1.40
2023-09-21T07:16:30.933Z,1.30
2023-09-21T07:17:31.234Z,1.50
2023-09-21T07:18:31.537Z,1.30
2023-09-21T07:19:31.755Z,1.60
2023-09-21T07:20:32.141Z,1.50
2023-09-21T07:21:32.403Z,1.50
2023-09-21T07:22:32.622Z,1.70
2023-09-21T07:23:32.876Z,1.40
2023-09-21T07:24:33.328Z,1.80
2023-09-21T07:25:33.497Z,1.80
2023-09-21T07:26:33.718Z,1.60
2023-09-21T07:27:33.987Z,1.60
2023-09-21T07:28:34.216Z,1.60
2023-09-21T07:29:34.453Z,1.80
2023-09-21T07:30:34.863Z,1.60
2023-09-21T07:31:34.951Z,1.70
2023-09-21T07:32:35.192Z,1.50
2023-09-21T07:33:35.592Z,1.80
2023-09-21T07:34:35.885Z,1.30
2023-09-21T07:35:36.110Z,1.70
2023-09-21T07:36:36.371Z,1.60
2023-09-21T07:37:36.582Z,1.60
2023-09-21T07:38:36.873Z,1.50
2023-09-21T07:39:37.143Z,1.50
2023-09-21T07:40:37.449Z,1.30
2023-09-21T07:41:37.685Z,1.60
2023-09-21T07:42:37.909Z,2.00
2023-09-21T07:43:38.321Z,1.70
2023-09-21T07:44:38.535Z,1.60
2023-09-21T07:45:38.791Z,1.80
2023-09-21T07:46:39.055Z,1.60
2023-09-21T07:47:39.297Z,2.00
2023-09-21T07:48:39.603Z,1.70
2023-09-21T07:49:39.849Z,1.50
2023-09-21T07:50:40.092Z,1.70
2023-09-21T07:51:40.349Z,1.50
2023-09-21T07:52:40.603Z,1.80
2023-09-21T07:53:41.544Z,1.70
2023-09-21T07:54:41.148Z,1.80
2023-09-21T07:55:41.347Z,2.00
2023-09-21T07:56:41.727Z,1.70
2023-09-21T07:57:42.055Z,1.60
2023-09-21T07:58:42.537Z,2.00
2023-09-21T07:59:42.630Z,1.60
2023-09-21T08:00:42.839Z,1.60
2023-09-21T08:01:43.081Z,1.80
2023-09-21T08:02:43.389Z,1.30
2023-09-21T08:03:43.911Z,1.20
2023-09-21T08:04:44.158Z,1.30
2023-09-21T08:05:44.455Z,1.40
2023-09-21T08:06:44.556Z,1.30
2023-09-21T08:07:44.832Z,1.20
2023-09-21T08:08:45.114Z,1.40
2023-09-21T08:09:45.401Z,1.60
2023-09-21T08:10:45.610Z,1.30
2023-09-21T08:11:45.863Z,1.30
2023-09-21T08:12:46.118Z,1.40
2023-09-21T08:13:46.366Z,1.20
2023-09-21T08:14:46.609Z,1.90
2023-09-21T08:15:46.845Z,1.40
2023-09-21T08:16:47.145Z,1.10
2023-09-21T08:17:47.355Z,1.10
2023-09-21T08:18:47.636Z,1.30
2023-09-21T08:19:47.876Z,1.20
2023-09-21T08:20:48.180Z,1.30
2023-09-21T08:21:48.452Z,1.20
2023-09-21T08:22:48.707Z,1.30
2023-09-21T08:23:48.972Z,1.30
2023-09-21T08:24:49.165Z,1.40
2023-09-21T08:25:49.522Z,1.50
2023-09-21T08:26:50.083Z,1.20
2023-09-21T08:27:50.090Z,1.20
2023-09-21T08:28:50.333Z,1.00
2023-09-21T08:29:50.595Z,1.20
2023-09-21T08:30:50.990Z,1.20
2023-09-21T08:31:51.571Z,1.10
2023-09-21T08:32:51.422Z,1.30
2023-09-21T08:33:51.723Z,1.10
2023-09-21T08:34:51.968Z,1.30
2023-09-21T08:35:52.276Z,1.30
2023-09-21T08:36:52.479Z,1.70
2023-09-21T08:37:52.714Z,1.10
2023-09-21T08:38:53.017Z,1.20
2023-09-21T08:39:53.430Z,1.40
2023-09-21T08:40:53.499Z,1.30
2023-09-21T08:41:53.775Z,1.20
2023-09-21T08:42:54.040Z,1.20
2023-09-21T08:43:54.282Z,1.30
2023-09-21T08:44:54.577Z,1.20
2023-09-21T08:45:54.875Z,1.50
2023-09-21T08:46:55.146Z,1.30
2023-09-21T08:47:55.581Z,1.40
2023-09-21T08:48:55.783Z,1.20
2023-09-21T08:49:56.017Z,1.30
2023-09-21T08:50:56.345Z,1.40
2023-09-21T08:51:56.560Z,0.90
2023-09-21T08:52:56.794Z,1.20
2023-09-21T08:53:57.094Z,1.20
2023-09-21T08:54:57.334Z,1.30
2023-09-21T08:55:57.572Z,1.40
2023-09-21T08:56:57.817Z,1.10
2023-09-21T08:57:58.045Z,1.10
2023-09-21T08:58:58.329Z,1.30
2023-09-21T08:59:58.751Z,0.90
2023-09-21T09:00:58.853Z,1.10
2023-09-21T09:01:59.075Z,1.10
2023-09-21T09:02:59.505Z,1.40
2023-09-21T09:04:00.040Z,1.50
2023-09-21T09:04:59.942Z,1.30
2023-09-21T09:06:00.249Z,1.10
2023-09-21T09:07:00.486Z,0.90
2023-09-21T09:08:00.846Z,1.20
2023-09-21T09:09:01.222Z,1.20
2023-09-21T09:10:01.362Z,0.90
2023-09-21T09:11:01.589Z,1.30
2023-09-21T09:12:01.846Z,1.20
2023-09-21T09:13:02.118Z,1.20
2023-09-21T09:14:02.369Z,1.20
2023-09-21T09:15:02.659Z,1.40
2023-09-21T09:16:02.916Z,1.00
2023-09-21T09:17:03.131Z,1.10
2023-09-21T09:18:03.543Z,1.10
2023-09-21T09:19:03.673Z,1.20
2023-09-21T09:20:03.951Z,1.20
2023-09-21T09:21:04.226Z,1.20
2023-09-21T09:22:04.468Z,1.10
2023-09-21T09:23:04.743Z,1.20
2023-09-21T09:24:05.018Z,1.50
2023-09-21T09:25:05.214Z,1.10
2023-09-21T09:26:05.479Z,1.30
2023-09-21T09:27:05.816Z,1.00
2023-09-21T09:28:06.047Z,1.30
2023-09-21T09:29:06.300Z,1.30
2023-09-21T09:30:06.550Z,1.00
2023-09-21T09:31:06.801Z,1.10
2023-09-21T09:32:07.131Z,0.80
2023-09-21T09:33:07.388Z,1.20
2023-09-21T09:34:07.712Z,1.00
2023-09-21T09:35:07.953Z,1.30
2023-09-21T09:36:08.237Z,0.80
2023-09-21T09:37:08.477Z,1.30
2023-09-21T09:38:08.729Z,1.10
2023-09-21T09:39:09.066Z,0.80
2023-09-21T09:40:09.317Z,1.40
2023-09-21T09:41:09.567Z,1.50
2023-09-21T09:42:09.895Z,1.20
2023-09-21T09:43:10.294Z,1.60
2023-09-21T09:44:10.460Z,2.50
2023-09-21T09:45:10.730Z,2.20
2023-09-21T09:46:11.002Z,5.90
2023-09-21T09:47:11.204Z,4.50
2023-09-21T09:48:11.532Z,3.80
2023-09-21T09:49:11.848Z,2.30
2023-09-21T09:50:12.116Z,2.10
2023-09-21T09:51:12.286Z,2.10
2023-09-21T09:52:12.575Z,2.30
2023-09-21T09:53:12.818Z,2.70
2023-09-21T09:54:13.039Z,1.70
2023-09-21T09:55:13.802Z,1.70
2023-09-21T09:56:13.596Z,2.00
2023-09-21T09:57:13.895Z,2.50
2023-09-21T09:58:16.606Z,2.00
2023-09-21T09:59:14.385Z,1.10
2023-09-21T10:00:14.721Z,1.20
2023-09-21T10:01:15.001Z,1.20
2023-09-21T10:02:15.316Z,1.00
2023-09-21T10:03:15.749Z,0.80
2023-09-21T10:04:15.969Z,0.90
2023-09-21T10:05:16.297Z,1.40
2023-09-21T10:06:16.581Z,1.20
2023-09-21T10:07:16.777Z,1.10
2023-09-21T10:08:17.008Z,0.90
2023-09-21T10:09:17.386Z,1.00
2023-09-21T10:10:17.653Z,0.80
2023-09-21T10:11:17.911Z,0.90
2023-09-21T10:12:18.143Z,0.80
2023-09-21T10:13:18.403Z,0.60
2023-09-21T10:14:18.663Z,1.00
2023-09-21T10:15:18.973Z,0.80
2023-09-21T10:16:19.268Z,1.00
2023-09-21T10:17:19.538Z,1.10
2023-09-21T10:18:19.847Z,0.80
2023-09-21T10:19:20.136Z,0.90
2023-09-21T10:20:20.376Z,1.30
2023-09-21T10:21:20.612Z,1.00
2023-09-21T10:22:20.992Z,0.90
2023-09-21T10:23:21.229Z,1.10
2023-09-21T10:24:21.563Z,0.80
2023-09-21T10:25:21.762Z,1.20
2023-09-21T10:26:22.023Z,1.60
2023-09-21T10:27:22.291Z,1.20
2023-09-21T10:28:22.520Z,1.50
2023-09-21T10:29:22.759Z,1.00
2023-09-21T10:30:23.126Z,0.90
2023-09-21T10:31:23.407Z,0.80
2023-09-21T10:32:23.631Z,0.90
2023-09-21T10:33:23.994Z,0.90
2023-09-21T10:34:24.168Z,0.90
2023-09-21T10:35:24.381Z,1.00
2023-09-21T10:36:24.936Z,0.90
2023-09-21T10:37:24.994Z,0.90
2023-09-21T10:38:25.272Z,0.90
2023-09-21T10:39:25.637Z,1.00
2023-09-21T10:40:25.844Z,0.90
2023-09-21T10:41:26.094Z,1.00
2023-09-21T10:42:26.417Z,0.90
2023-09-21T10:43:26.652Z,0.80
2023-09-21T10:44:26.872Z,0.90
2023-09-21T10:45:27.272Z,1.00
2023-09-21T10:46:27.509Z,0.80
2023-09-21T10:47:27.735Z,0.90
2023-09-21T10:48:28.037Z,1.50
2023-09-21T10:49:28.307Z,1.80
2023-09-21T10:50:28.532Z,1.90
2023-09-21T10:51:28.828Z,1.10
2023-09-21T10:52:29.118Z,1.00
2023-09-21T10:53:29.332Z,1.30
2023-09-21T10:54:29.623Z,1.10
2023-09-21T10:55:29.834Z,0.70
2023-09-21T10:56:30.109Z,1.10
2023-09-21T10:57:30.507Z,0.80
2023-09-21T10:58:30.659Z,1.00
2023-09-21T10:59:30.897Z,1.00
2023-09-21T11:00:31.158Z,0.80
2023-09-21T11:01:31.487Z,0.70
2023-09-21T11:02:31.627Z,0.60
2023-09-21T11:03:31.908Z,0.60
2023-09-21T11:04:32.157Z,0.50
2023-09-21T11:05:32.477Z,0.70
2023-09-21T11:06:32.779Z,0.80
2023-09-21T11:07:33.044Z,0.70
2023-09-21T11:08:33.252Z,0.70
2023-09-21T11:09:33.571Z,0.90
2023-09-21T11:10:42.942Z,0.70
2023-09-21T11:11:34.043Z,0.80
2023-09-21T11:12:34.413Z,1.00
2023-09-21T11:13:34.658Z,0.70
2023-09-21T11:14:34.916Z,0.90
2023-09-21T11:15:35.310Z,0.80
2023-09-21T11:16:35.672Z,0.80
2023-09-21T11:17:35.995Z,0.90
2023-09-21T11:18:36.309Z,0.90
2023-09-21T11:19:36.496Z,0.60
2023-09-21T11:20:36.745Z,0.60
2023-09-21T11:21:37.188Z,1.00
2023-09-21T11:22:37.251Z,0.80
2023-09-21T11:23:37.576Z,0.80
2023-09-21T11:24:37.873Z,0.90
2023-09-21T11:25:38.016Z,0.80
2023-09-21T11:26:38.254Z,0.90
2023-09-21T11:27:38.492Z,1.30
2023-09-21T11:28:38.809Z,0.60
2023-09-21T11:29:39.055Z,0.80
2023-09-21T11:30:39.391Z,0.60
2023-09-21T11:31:39.682Z,1.10
2023-09-21T11:32:39.953Z,0.70
2023-09-21T11:33:40.232Z,0.60
2023-09-21T11:34:40.460Z,0.80
2023-09-21T11:35:40.670Z,0.70
2023-09-21T11:36:41.019Z,0.80
2023-09-21T11:37:41.363Z,0.60
2023-09-21T11:38:41.836Z,0.70
2023-09-21T11:39:41.822Z,0.80
2023-09-21T11:40:42.209Z,0.80
2023-09-21T11:41:42.405Z,0.90
2023-09-21T11:42:42.809Z,1.00
2023-09-21T11:43:43.081Z,0.90
2023-09-21T11:44:43.312Z,0.90
2023-09-21T11:45:43.698Z,0.70
2023-09-21T11:46:44.184Z,1.30
2023-09-21T11:47:44.281Z,0.80
2023-09-21T11:48:47.742Z,0.80
2023-09-21T11:49:44.919Z,1.00
2023-09-21T11:50:45.146Z,0.70
2023-09-21T11:51:45.451Z,0.70
2023-09-21T11:52:45.717Z,0.70
2023-09-21T11:53:46.080Z,0.60
2023-09-21T11:54:46.428Z,0.70
2023-09-21T11:55:46.560Z,1.10
2023-09-21T11:56:46.829Z,0.70
2023-09-21T11:57:47.029Z,0.80
2023-09-21T11:58:47.261Z,0.60
2023-09-21T11:59:47.479Z,0.60
2023-09-21T12:00:51.835Z,0.80
2023-09-21T12:01:48.081Z,0.70
2023-09-21T12:02:48.677Z,0.80
2023-09-21T12:03:48.825Z,0.60
2023-09-21T12:04:49.119Z,0.70
2023-09-21T12:05:49.339Z,0.60
2023-09-21T12:06:49.683Z,0.50
2023-09-21T12:07:49.943Z,0.90
2023-09-21T12:08:50.183Z,0.60
2023-09-21T12:09:50.420Z,0.80
2023-09-21T12:10:50.643Z,0.60
2023-09-21T12:11:51.034Z,0.70
2023-09-21T12:12:51.264Z,0.70
2023-09-21T12:13:51.608Z,0.70
2023-09-21T12:14:51.831Z,0.70
2023-09-21T12:15:52.188Z,0.70
2023-09-21T12:16:52.479Z,0.70
2023-09-21T12:17:52.742Z,0.60
2023-09-21T12:18:52.959Z,0.60
2023-09-21T12:19:53.284Z,1.00
2023-09-21T12:20:53.548Z,0.50
2023-09-21T12:21:53.790Z,0.60
2023-09-21T12:22:54.010Z,0.70
2023-09-21T12:23:54.258Z,0.60
2023-09-21T12:24:54.503Z,0.80
2023-09-21T12:25:54.730Z,0.70
2023-09-21T12:26:55.133Z,0.60
2023-09-21T12:27:55.217Z,0.60
2023-09-21T12:28:55.443Z,0.70
2023-09-21T12:29:55.720Z,0.70
2023-09-21T12:30:56.318Z,0.60
2023-09-21T12:31:59.709Z,0.60
2023-09-21T12:32:56.495Z,0.50
2023-09-21T12:33:57.183Z,0.60
2023-09-21T12:34:57.006Z,0.90
2023-09-21T12:35:57.455Z,0.70
2023-09-21T12:36:57.604Z,0.60
2023-09-21T12:37:57.854Z,0.50
2023-09-21T12:38:58.212Z,0.60
2023-09-21T12:39:59.350Z,0.90
2023-09-21T12:40:58.770Z,0.70
2023-09-21T12:41:59.171Z,0.60
2023-09-21T12:42:59.418Z,0.80
2023-09-21T12:43:59.632Z,0.60
2023-09-21T12:44:59.889Z,0.80
2023-09-21T12:46:00.287Z,1.10
2023-09-21T12:47:00.327Z,0.60
2023-09-21T12:48:00.785Z,0.70
2023-09-21T12:49:01.022Z,0.70
2023-09-21T12:50:01.285Z,0.60
2023-09-21T12:51:01.652Z,0.80
2023-09-21T12:52:01.912Z,0.80
2023-09-21T12:53:02.138Z,0.90
2023-09-21T12:54:03.375Z,1.10
2023-09-21T12:55:02.634Z,1.00
2023-09-21T12:56:02.958Z,0.90
2023-09-21T12:57:03.333Z,0.60
2023-09-21T12:58:03.640Z,0.90
2023-09-21T12:59:04.099Z,0.60
2023-09-21T13:00:04.210Z,0.60
2023-09-21T13:01:04.443Z,0.70
2023-09-21T13:02:04.759Z,0.70
2023-09-21T13:03:05.217Z,0.80
2023-09-21T13:04:05.494Z,0.70
2023-09-21T13:05:05.722Z,0.70
2023-09-21T13:06:05.888Z,0.70
2023-09-21T13:07:06.146Z,0.60
2023-09-21T13:08:06.401Z,0.60
2023-09-21T13:09:06.661Z,0.60
2023-09-21T13:10:06.976Z,0.60
2023-09-21T13:11:07.207Z,0.50
2023-09-21T13:12:07.457Z,0.80
2023-09-21T13:13:09.368Z,0.50
2023-09-21T13:14:07.982Z,0.70
2023-09-21T13:15:08.332Z,0.70
2023-09-21T13:16:08.421Z,0.80
2023-09-21T13:17:09.181Z,0.70
2023-09-21T13:18:09.241Z,0.90
2023-09-21T13:19:09.367Z,0.50
2023-09-21T13:20:09.621Z,0.70
2023-09-21T13:21:09.885Z,0.70
2023-09-21T13:22:10.143Z,0.70